Time;durP1;ratioP1;P1;durP2;ratioP2;P2;SDS_P1;SDS_P2;PMS_P1;PMS_P2;Temp;Humidity;BMP_temperature;BMP_pressure;BME280_temperature;BME280_humidity;BME280_pressure;Samples;Min_cycle;Max_cycle;Signal;HPM_P1;HPM_P2
2024/03/11 00:02:20;;;;;;;13.77;6.40;;;9.90;99.90;;;;;;4996486;28;20030;-78
2024/03/11 00:04:47;;;;;;;13.98;7.22;;;9.80;99.90;;;;;;4996351;28;20431;-78
2024/03/11 00:07:15;;;;;;;11.23;6.30;;;9.80;99.90;;;;;;4996577;28;20495;-78
2024/03/11 00:09:44;;;;;;;10.23;6.28;;;9.80;99.90;;;;;;4990433;28;20109;-78
2024/03/11 00:12:22;;;;;;;10.13;6.53;;;9.80;99.90;;;;;;4976903;28;20041;-77
2024/03/11 00:14:51;;;;;;;13.73;6.33;;;9.70;99.90;;;;;;4975387;28;20070;-78
2024/03/11 00:17:18;;;;;;;12.97;7.10;;;9.70;99.90;;;;;;4976260;28;20043;-78
2024/03/11 00:19:44;;;;;;;15.70;7.20;;;9.60;99.90;;;;;;4959025;28;20505;-78
2024/03/11 00:22:09;;;;;;;12.15;7.15;;;9.60;99.90;;;;;;4976883;28;20038;-78
2024/03/11 00:24:35;;;;;;;17.85;7.32;;;9.50;99.90;;;;;;4976855;28;20071;-77
2024/03/11 00:27:07;;;;;;;15.88;7.63;;;9.50;99.90;;;;;;4979620;28;20096;-78
2024/03/11 00:29:34;;;;;;;17.75;7.28;;;9.50;99.90;;;;;;4996073;28;20057;-77
2024/03/11 00:32:02;;;;;;;14.57;7.30;;;9.40;99.90;;;;;;4995434;28;20062;-78
2024/03/11 00:34:29;;;;;;;13.43;6.67;;;9.50;99.90;;;;;;4978400;28;20454;-79
2024/03/11 00:36:55;;;;;;;12.02;8.10;;;9.50;99.90;;;;;;4995900;28;20383;-78
2024/03/11 00:39:21;;;;;;;14.33;7.47;;;9.50;99.90;;;;;;4995803;28;20034;-77
2024/03/11 00:41:46;;;;;;;13.57;8.02;;;9.50;99.90;;;;;;4995821;28;20038;-76
2024/03/11 00:44:12;;;;;;;14.63;7.87;;;9.40;99.90;;;;;;4995796;28;20030;-77
2024/03/11 00:46:38;;;;;;;11.23;6.60;;;9.40;99.90;;;;;;4995489;28;20114;-78
2024/03/11 00:49:06;;;;;;;11.33;7.30;;;9.40;99.90;;;;;;4995633;28;20034;-78
2024/03/11 00:51:33;;;;;;;9.37;7.13;;;9.30;99.90;;;;;;4995915;28;20042;-78
2024/03/11 00:53:59;;;;;;;15.87;8.57;;;9.30;99.90;;;;;;4995617;28;20093;-78
2024/03/11 00:56:24;;;;;;;12.67;8.07;;;9.30;99.90;;;;;;4976686;28;20055;-78
2024/03/11 00:58:51;;;;;;;15.33;8.77;;;9.30;99.90;;;;;;4976601;28;20035;-78
2024/03/11 01:01:18;;;;;;;13.20;8.60;;;9.30;99.90;;;;;;4976528;28;20085;-78
2024/03/11 01:07:25;;;;;;;16.90;8.52;;;9.20;99.90;;;;;;4976591;28;20154;-77
2024/03/11 01:10:53;;;;;;;13.83;9.03;;;9.20;99.90;;;;;;4975814;28;20023;-78
2024/03/11 01:13:48;;;;;;;14.07;8.63;;;9.20;99.90;;;;;;4911592;29;20130;-78
2024/03/11 01:26:36;;;;;;;13.80;5.70;;;9.10;99.90;;;;;;4861171;29;20045;-78
2024/03/11 01:32:18;;;;;;;14.37;5.43;;;9.10;99.90;;;;;;4875278;29;20037;-77
2024/03/11 01:34:44;;;;;;;9.63;4.70;;;9.10;99.90;;;;;;4937839;29;20043;-78
2024/03/11 01:37:11;;;;;;;12.80;4.73;;;9.10;99.90;;;;;;4955726;28;20055;-79
2024/03/11 01:39:42;;;;;;;12.77;5.03;;;9.10;99.90;;;;;;4959901;28;20399;-77
2024/03/11 01:42:16;;;;;;;9.10;4.60;;;9.10;99.90;;;;;;4975113;28;20034;-78
2024/03/11 01:44:44;;;;;;;12.80;4.63;;;9.10;99.90;;;;;;4960205;28;20428;-78
2024/03/11 01:47:15;;;;;;;10.50;4.57;;;9.10;99.90;;;;;;4954363;29;20099;-77
2024/03/11 01:49:43;;;;;;;11.40;4.33;;;9.10;99.90;;;;;;4955626;28;20035;-79
2024/03/11 01:52:14;;;;;;;15.47;5.30;;;9.10;99.90;;;;;;4955797;28;20455;-78
2024/03/11 01:54:40;;;;;;;7.80;4.53;;;9.10;99.90;;;;;;4955853;28;20423;-78
2024/03/11 01:57:08;;;;;;;6.90;4.27;;;9.10;99.90;;;;;;4955674;28;20487;-78
2024/03/11 01:59:37;;;;;;;11.87;4.23;;;9.10;99.90;;;;;;4952433;28;20496;-78
2024/03/11 02:02:07;;;;;;;12.07;4.57;;;9.10;99.90;;;;;;4952879;28;20058;-78
2024/03/11 02:04:36;;;;;;;6.67;4.30;;;9.00;99.90;;;;;;4954011;28;20054;-78
2024/03/11 02:07:03;;;;;;;10.30;4.43;;;9.00;99.90;;;;;;4955392;28;20503;-78
2024/03/11 02:09:34;;;;;;;8.50;4.60;;;9.00;99.90;;;;;;4955186;28;20042;-78
2024/03/11 02:12:00;;;;;;;9.70;4.70;;;9.00;99.90;;;;;;4955548;28;20106;-76
2024/03/11 02:14:26;;;;;;;10.00;4.40;;;9.00;99.90;;;;;;4955106;28;20063;-76
2024/03/11 02:16:52;;;;;;;7.53;4.93;;;8.90;99.90;;;;;;4954304;28;20043;-76
2024/03/11 02:19:18;;;;;;;9.80;4.73;;;8.90;99.90;;;;;;4973085;28;20483;-76
2024/03/11 02:21:46;;;;;;;10.13;5.07;;;8.90;99.90;;;;;;4974109;28;20495;-77
2024/03/11 02:24:14;;;;;;;9.00;4.37;;;8.90;99.90;;;;;;4974435;28;20102;-76
2024/03/11 02:26:42;;;;;;;10.20;4.30;;;8.90;99.90;;;;;;4983726;28;20045;-77
2024/03/11 02:29:08;;;;;;;10.23;4.00;;;8.90;99.90;;;;;;4993523;28;20037;-76
2024/03/11 02:31:34;;;;;;;9.00;4.00;;;8.90;99.90;;;;;;4994126;28;20395;-78
2024/03/11 02:34:00;;;;;;;9.20;4.20;;;8.90;99.90;;;;;;4993970;28;20038;-78
2024/03/11 02:36:26;;;;;;;5.80;3.73;;;8.90;99.90;;;;;;4993436;28;20046;-78
2024/03/11 02:38:51;;;;;;;7.23;4.13;;;8.80;99.90;;;;;;4994075;28;20113;-78
2024/03/11 02:41:17;;;;;;;8.27;3.77;;;8.80;99.90;;;;;;4994339;28;20475;-76
2024/03/11 02:44:43;;;;;;;5.67;3.10;;;8.80;99.90;;;;;;4976258;28;20042;-76
2024/03/11 02:54:29;;;;;;;5.78;3.33;;;8.70;99.90;;;;;;4896259;29;20092;-79
2024/03/11 02:57:23;;;;;;;5.40;3.47;;;8.70;99.90;;;;;;4877085;29;20413;-78
2024/03/11 03:01:01;;;;;;;5.93;3.60;;;8.70;99.90;;;;;;4878535;29;20065;-77
2024/03/11 03:04:01;;;;;;;6.77;3.50;;;8.70;99.90;;;;;;4861346;29;20410;-78
2024/03/11 03:07:04;;;;;;;6.63;3.00;;;8.60;99.90;;;;;;4859269;29;20523;-77
2024/03/11 03:09:31;;;;;;;7.65;3.00;;;8.60;99.90;;;;;;4876910;29;20049;-78
2024/03/11 03:12:00;;;;;;;10.17;3.40;;;8.50;99.90;;;;;;4877100;29;20124;-79
2024/03/11 03:14:26;;;;;;;5.67;3.20;;;8.50;99.90;;;;;;4922471;28;20046;-78
2024/03/11 03:16:52;;;;;;;5.27;2.70;;;8.50;99.90;;;;;;4973723;28;20141;-79
2024/03/11 03:19:18;;;;;;;6.20;2.47;;;8.40;99.90;;;;;;4973755;28;20075;-78
2024/03/11 03:21:44;;;;;;;9.23;2.87;;;8.40;99.90;;;;;;4973726;28;20404;-79
2024/03/11 03:24:10;;;;;;;5.80;2.60;;;8.50;99.90;;;;;;4973840;28;20035;-78
2024/03/11 03:26:36;;;;;;;4.73;2.23;;;8.50;99.90;;;;;;4973740;28;20126;-78
2024/03/11 03:29:02;;;;;;;3.73;2.67;;;8.50;99.90;;;;;;4977343;28;20483;-79
2024/03/11 03:31:28;;;;;;;9.97;2.90;;;8.50;99.90;;;;;;4976353;28;20130;-78
2024/03/11 03:33:54;;;;;;;7.93;3.40;;;8.50;99.90;;;;;;4977709;28;20031;-78
2024/03/11 03:36:20;;;;;;;5.43;2.87;;;8.50;99.90;;;;;;4977597;28;20058;-78
2024/03/11 03:38:46;;;;;;;6.47;3.33;;;8.40;99.90;;;;;;4977280;28;20034;-78
2024/03/11 03:41:11;;;;;;;6.90;4.07;;;8.50;99.90;;;;;;4977031;28;20038;-78
2024/03/11 03:43:38;;;;;;;4.83;3.10;;;8.50;99.90;;;;;;4977187;28;20094;-78
2024/03/11 03:46:05;;;;;;;6.67;3.57;;;8.50;99.90;;;;;;4977212;28;20046;-78
2024/03/11 03:48:31;;;;;;;10.23;3.33;;;8.50;99.90;;;;;;4977314;28;20147;-78
2024/03/11 03:50:57;;;;;;;5.73;3.00;;;8.50;99.90;;;;;;4977206;28;20062;-78
2024/03/11 03:53:23;;;;;;;4.03;2.73;;;8.40;99.90;;;;;;4976848;28;20041;-78
2024/03/11 03:55:49;;;;;;;4.43;3.27;;;8.40;99.90;;;;;;4976779;28;20380;-79
2024/03/11 03:58:15;;;;;;;5.00;3.23;;;8.40;99.90;;;;;;4976882;28;20035;-78
2024/03/11 04:00:41;;;;;;;5.23;3.30;;;8.40;99.90;;;;;;4976898;28;20039;-79
2024/03/11 04:03:07;;;;;;;5.70;3.40;;;8.30;99.90;;;;;;4976562;28;20114;-78
2024/03/11 04:05:33;;;;;;;5.63;3.20;;;8.30;99.90;;;;;;4977034;28;20070;-78
2024/03/11 04:07:59;;;;;;;10.03;5.23;;;8.30;99.90;;;;;;4977179;28;20114;-78
2024/03/11 04:10:26;;;;;;;7.70;5.53;;;8.30;99.90;;;;;;4975392;28;20031;-78
2024/03/11 04:12:55;;;;;;;4.80;3.10;;;8.30;99.90;;;;;;4976520;28;20074;-78
2024/03/11 04:15:23;;;;;;;8.97;3.60;;;8.30;99.90;;;;;;4977244;28;20031;-77
2024/03/11 04:17:53;;;;;;;5.67;2.80;;;8.30;99.90;;;;;;4977418;28;20047;-78
2024/03/11 04:20:29;;;;;;;4.20;2.50;;;8.30;99.90;;;;;;4977146;28;20055;-78
2024/03/11 04:22:56;;;;;;;3.77;2.50;;;8.30;99.90;;;;;;4976814;28;20561;-77
2024/03/11 04:32:02;;;;;;;3.23;2.10;;;8.30;99.90;;;;;;4880094;29;20196;-78
2024/03/11 04:44:41;;;;;;;2.67;1.50;;;8.40;99.90;;;;;;4787947;29;20569;-78
2024/03/11 04:47:07;;;;;;;4.23;1.60;;;8.40;99.90;;;;;;4844406;29;20136;-77
2024/03/11 04:49:45;;;;;;;4.00;1.80;;;8.30;99.90;;;;;;4860524;29;20080;-77
2024/03/11 04:52:12;;;;;;;3.53;2.13;;;8.40;99.90;;;;;;4860261;29;20438;-78
2024/03/11 04:54:38;;;;;;;2.90;1.70;;;8.30;99.90;;;;;;4878391;29;20037;-77
2024/03/11 04:57:03;;;;;;;4.07;1.70;;;8.30;99.90;;;;;;4896569;29;20112;-78
2024/03/11 04:59:29;;;;;;;3.30;1.43;;;8.30;99.90;;;;;;4973877;28;20046;-78
2024/03/11 05:01:55;;;;;;;2.07;1.27;;;8.40;99.90;;;;;;4975956;28;20064;-78
2024/03/11 05:04:21;;;;;;;4.20;1.40;;;8.40;99.90;;;;;;4976018;28;20410;-78
2024/03/11 05:06:46;;;;;;;3.97;1.20;;;8.40;99.90;;;;;;4976312;28;20035;-77
2024/03/11 05:09:12;;;;;;;2.97;1.40;;;8.40;99.90;;;;;;4976000;28;20031;-77
2024/03/11 05:11:38;;;;;;;3.53;1.63;;;8.40;99.90;;;;;;4975890;28;20035;-77
2024/03/11 05:14:06;;;;;;;3.40;2.17;;;8.50;99.90;;;;;;4975841;28;20039;-78
2024/03/11 05:16:32;;;;;;;5.37;2.83;;;8.50;99.90;;;;;;4975703;28;20070;-78
2024/03/11 05:18:58;;;;;;;4.87;2.33;;;8.40;99.90;;;;;;4975988;28;20483;-77
2024/03/11 05:21:25;;;;;;;3.13;2.20;;;8.40;99.90;;;;;;4975453;28;20045;-77
2024/03/11 05:23:51;;;;;;;9.20;3.27;;;8.40;99.90;;;;;;4975513;28;20526;-78
2024/03/11 05:26:18;;;;;;;6.33;2.80;;;8.30;99.90;;;;;;4975263;28;20039;-78
2024/03/11 05:28:44;;;;;;;4.37;3.23;;;8.40;99.90;;;;;;4975497;28;20055;-78
2024/03/11 05:31:11;;;;;;;6.27;3.20;;;8.40;99.90;;;;;;4975234;28;20483;-75
2024/03/11 05:33:37;;;;;;;4.77;2.83;;;8.30;99.90;;;;;;4975473;28;20069;-77
2024/03/11 05:36:03;;;;;;;6.60;3.40;;;8.30;99.90;;;;;;4975675;28;20070;-77
2024/03/11 05:38:28;;;;;;;6.33;3.40;;;8.30;99.90;;;;;;4974888;28;20054;-76
2024/03/11 05:40:54;;;;;;;4.57;3.00;;;8.20;99.90;;;;;;4975118;28;20507;-76
2024/03/11 05:43:22;;;;;;;5.00;3.17;;;8.20;99.90;;;;;;4974723;28;20078;-76
2024/03/11 05:45:48;;;;;;;5.13;3.10;;;8.20;99.90;;;;;;4974606;28;20038;-77
2024/03/11 05:48:15;;;;;;;4.90;3.30;;;8.30;99.90;;;;;;4973640;28;20403;-76
2024/03/11 05:50:41;;;;;;;3.97;3.20;;;8.20;99.90;;;;;;4974211;28;20039;-77
2024/03/11 05:53:07;;;;;;;3.90;3.07;;;8.20;99.90;;;;;;4975205;28;20502;-77
2024/03/11 05:55:33;;;;;;;4.33;3.27;;;8.10;99.90;;;;;;4957700;28;20107;-79
2024/03/11 05:58:08;;;;;;;5.53;4.13;;;8.10;99.90;;;;;;4975269;28;20112;-78
2024/03/11 06:00:36;;;;;;;6.20;3.90;;;8.20;99.90;;;;;;4973228;28;20365;-78
2024/03/11 06:03:03;;;;;;;5.87;3.97;;;8.20;99.90;;;;;;4974720;28;20053;-77
2024/03/11 06:26:14;;;;;;;15.23;8.37;;;8.20;99.90;;;;;;6344636;22;271565;-75
2024/03/11 06:28:55;;;;;;;11.07;6.13;;;8.20;99.90;;;;;;6322970;22;20003;-75
2024/03/11 06:31:24;;;;;;;7.63;4.47;;;8.10;99.90;;;;;;6346526;22;20006;-75
2024/03/11 06:33:50;;;;;;;5.87;3.77;;;8.20;99.90;;;;;;6319783;22;20371;-75
2024/03/11 06:36:16;;;;;;;7.37;4.03;;;8.20;99.90;;;;;;6319024;22;20060;-75
2024/03/11 06:38:44;;;;;;;7.37;3.13;;;8.20;99.90;;;;;;6347095;22;20017;-76
2024/03/11 06:41:11;;;;;;;4.83;3.40;;;8.20;99.90;;;;;;6319676;22;20341;-75
2024/03/11 06:43:38;;;;;;;7.73;2.90;;;8.30;99.90;;;;;;6347200;22;20002;-74
2024/03/11 06:46:04;;;;;;;4.47;2.63;;;8.30;99.90;;;;;;6347215;22;19995;-76
2024/03/11 06:48:30;;;;;;;5.93;3.37;;;8.40;99.90;;;;;;6346292;22;20321;-76
2024/03/11 06:50:56;;;;;;;3.40;2.67;;;8.40;99.90;;;;;;6347117;22;20010;-74
2024/03/11 06:53:22;;;;;;;5.13;3.23;;;8.50;99.90;;;;;;6347107;22;20002;-75
2024/03/11 06:55:49;;;;;;;6.97;3.13;;;8.50;99.90;;;;;;6344458;22;20313;-75
2024/03/11 06:58:15;;;;;;;4.70;2.33;;;8.50;99.90;;;;;;6346558;22;20039;-75
2024/03/11 07:00:42;;;;;;;2.33;2.00;;;8.60;99.90;;;;;;6318574;22;20056;-75
2024/03/11 07:03:07;;;;;;;3.57;2.17;;;8.60;99.90;;;;;;6318431;22;20044;-75
2024/03/11 07:05:33;;;;;;;4.33;1.90;;;8.70;99.90;;;;;;6345517;22;19995;-75
2024/03/11 07:08:06;;;;;;;2.63;2.10;;;8.70;99.90;;;;;;6345956;22;19999;-76
2024/03/11 07:10:32;;;;;;;7.40;3.17;;;8.70;99.90;;;;;;6346037;22;20417;-72
2024/03/11 07:12:59;;;;;;;11.60;4.10;;;8.80;99.90;;;;;;6345827;22;20065;-73
2024/03/11 07:15:25;;;;;;;6.63;3.77;;;8.80;99.90;;;;;;6345267;22;20041;-74
2024/03/11 07:17:51;;;;;;;7.53;4.27;;;8.80;99.90;;;;;;6345709;22;20007;-73
2024/03/11 07:20:17;;;;;;;7.57;4.50;;;8.80;99.90;;;;;;6345910;22;20003;-72
2024/03/11 07:22:45;;;;;;;6.50;4.60;;;8.80;99.90;;;;;;6346358;22;19999;-72
2024/03/11 07:25:11;;;;;;;10.30;5.00;;;8.80;99.90;;;;;;6344379;22;20005;-73
2024/03/11 07:27:39;;;;;;;10.00;5.27;;;8.90;99.90;;;;;;6338244;22;20015;-73
2024/03/11 07:30:11;;;;;;;6.27;4.93;;;8.90;99.90;;;;;;6338548;22;20048;-73
2024/03/11 07:32:37;;;;;;;6.53;5.25;;;8.90;99.90;;;;;;6338841;22;20413;-73
2024/03/11 07:35:03;;;;;;;11.37;5.40;;;8.90;99.90;;;;;;6338135;22;20017;-72
2024/03/11 07:37:29;;;;;;;7.30;4.80;;;8.90;99.90;;;;;;6339251;22;19999;-73
2024/03/11 07:39:56;;;;;;;7.63;5.20;;;8.90;99.90;;;;;;6339685;22;20010;-74
2024/03/11 07:42:22;;;;;;;13.23;5.93;;;9.00;99.90;;;;;;6338661;22;19999;-74
2024/03/11 07:44:52;;;;;;;9.77;5.93;;;8.90;99.90;;;;;;6339449;22;20033;-74
2024/03/11 07:47:18;;;;;;;7.60;5.60;;;9.00;99.90;;;;;;6311577;22;20517;-74
2024/03/11 07:49:48;;;;;;;8.93;6.27;;;9.00;99.90;;;;;;6339068;22;20088;-75
2024/03/11 07:52:14;;;;;;;7.40;6.07;;;9.00;99.90;;;;;;6311084;22;20399;-74
2024/03/11 07:57:32;;;;;;;12.73;7.47;;;9.10;99.90;;;;;;6321037;22;20011;-74
2024/03/11 08:00:51;;;;;;;18.07;8.40;;;9.10;99.90;;;;;;6311235;22;20056;-78
2024/03/11 08:10:35;;;;;;;16.90;10.50;;;9.10;99.90;;;;;;6150964;23;20032;-75
2024/03/11 08:13:04;;;;;;;17.23;10.27;;;9.10;99.90;;;;;;6064096;23;20382;-75
2024/03/11 08:15:33;;;;;;;14.77;9.00;;;9.20;99.90;;;;;;6226530;22;20486;-76
2024/03/11 08:17:59;;;;;;;13.00;8.73;;;9.20;99.90;;;;;;6273985;22;20441;-75
2024/03/11 08:20:26;;;;;;;10.03;8.03;;;9.20;99.90;;;;;;6286403;22;20041;-75
2024/03/11 08:22:55;;;;;;;7.97;6.13;;;9.30;99.90;;;;;;6335289;22;20014;-74
2024/03/11 08:25:27;;;;;;;11.97;5.43;;;9.30;99.90;;;;;;6335882;22;20034;-75
2024/03/11 08:27:54;;;;;;;7.68;3.80;;;9.40;99.90;;;;;;6310712;22;20098;-75
2024/03/11 08:30:28;;;;;;;8.17;3.93;;;9.40;99.90;;;;;;6338823;22;20003;-75
2024/03/11 08:32:56;;;;;;;7.53;4.30;;;9.50;99.90;;;;;;6339173;22;20090;-75
2024/03/11 08:35:23;;;;;;;10.33;3.90;;;9.50;99.90;;;;;;6310899;22;20019;-76
2024/03/11 08:37:52;;;;;;;8.27;4.00;;;9.50;99.90;;;;;;6338391;22;20437;-75
2024/03/11 08:40:25;;;;;;;6.20;3.33;;;9.50;99.90;;;;;;6338817;22;19999;-75
2024/03/11 08:42:51;;;;;;;10.27;5.60;;;9.60;99.90;;;;;;6338364;22;19994;-75
2024/03/11 08:45:18;;;;;;;10.20;5.03;;;9.60;99.90;;;;;;6338026;22;20128;-75
2024/03/11 08:47:46;;;;;;;8.27;5.00;;;9.70;99.90;;;;;;6338150;22;19998;-74
2024/03/11 08:50:15;;;;;;;6.53;4.67;;;9.70;99.90;;;;;;6337929;22;20432;-75
2024/03/11 08:52:45;;;;;;;7.10;4.27;;;9.70;99.90;;;;;;6338236;22;20003;-75
2024/03/11 08:55:15;;;;;;;7.60;4.90;;;9.70;99.90;;;;;;6338252;22;20425;-75
2024/03/11 08:57:41;;;;;;;10.20;5.03;;;9.80;99.90;;;;;;6338521;22;20325;-75
2024/03/11 09:00:09;;;;;;;12.18;4.97;;;9.80;99.90;;;;;;6338288;22;20051;-75
2024/03/11 09:02:36;;;;;;;8.83;5.70;;;9.80;99.90;;;;;;6338294;22;20006;-75
2024/03/11 09:05:03;;;;;;;16.30;9.03;;;9.80;99.90;;;;;;6310530;22;20011;-75
2024/03/11 09:07:30;;;;;;;10.98;7.20;;;9.80;99.90;;;;;;6338260;22;20078;-75
2024/03/11 09:09:57;;;;;;;9.10;5.97;;;9.80;99.90;;;;;;6338382;22;20205;-76
2024/03/11 09:12:23;;;;;;;8.95;5.60;;;9.80;99.90;;;;;;6338008;22;20368;-77
2024/03/11 09:14:49;;;;;;;8.02;6.30;;;9.90;99.90;;;;;;6311559;22;20029;-75
2024/03/11 09:17:17;;;;;;;11.20;6.32;;;9.90;99.90;;;;;;6339170;22;20631;-76
2024/03/11 09:19:43;;;;;;;13.93;6.20;;;9.90;99.90;;;;;;6311029;22;20011;-76
2024/03/11 09:22:13;;;;;;;10.05;6.47;;;9.90;99.90;;;;;;6338033;22;19999;-75
2024/03/11 09:35:30;;;;;;;9.82;5.90;;;10.00;99.90;;;;;;5924404;24;20058;-75
2024/03/11 09:41:48;;;;;;;7.68;5.28;;;10.10;99.90;;;;;;5924401;24;20035;-76
2024/03/11 09:44:44;;;;;;;9.02;5.07;;;10.10;99.90;;;;;;5929292;23;20445;-75
2024/03/11 09:47:52;;;;;;;9.57;4.70;;;10.20;99.90;;;;;;6052073;23;20003;-76
2024/03/11 09:50:49;;;;;;;10.32;4.00;;;10.20;99.90;;;;;;6003718;23;20035;-76
2024/03/11 09:53:18;;;;;;;5.10;2.95;;;10.20;99.90;;;;;;6151731;23;20356;-75
2024/03/11 09:55:44;;;;;;;9.45;4.55;;;10.30;99.90;;;;;;6255654;22;20104;-77
2024/03/11 09:58:15;;;;;;;12.27;5.78;;;10.30;99.90;;;;;;6307276;22;19996;-76
2024/03/11 10:00:48;;;;;;;5.45;4.30;;;10.40;99.90;;;;;;6306800;22;20074;-75
2024/03/11 10:03:20;;;;;;;;;;;10.40;99.90;;;;;;6306530;22;20030;-76
2024/03/11 10:06:07;;;;;;;8.00;3.95;;;10.40;99.90;;;;;;6306951;22;19906;-76
2024/03/11 10:08:35;;;;;;;9.07;3.42;;;10.40;99.90;;;;;;6306571;22;20362;-76
2024/03/11 10:11:28;;;;;;;9.93;3.67;;;10.50;99.90;;;;;;6306317;22;20022;-75
2024/03/11 10:13:57;;;;;;;4.57;3.33;;;10.50;99.90;;;;;;6307182;22;20064;-76
2024/03/11 10:16:26;;;;;;;5.15;2.90;;;10.50;99.90;;;;;;6306995;22;20459;-75
2024/03/11 10:18:53;;;;;;;5.72;2.78;;;10.50;99.90;;;;;;6307108;22;20417;-75
2024/03/11 10:21:19;;;;;;;9.88;2.58;;;10.50;99.90;;;;;;6306566;22;20010;-75
2024/03/11 10:23:51;;;;;;;5.20;2.75;;;10.60;99.90;;;;;;6307447;22;20007;-76
2024/03/11 10:26:17;;;;;;;4.47;2.90;;;10.60;99.90;;;;;;6306929;22;20334;-76
2024/03/11 10:28:49;;;;;;;5.20;3.53;;;10.60;99.90;;;;;;6313581;22;20015;-76
2024/03/11 10:31:27;;;;;;;14.77;4.38;;;10.60;99.90;;;;;;6338240;22;20007;-75
2024/03/11 10:34:20;;;;;;;9.35;3.92;;;10.70;99.90;;;;;;6337421;22;20527;-75
2024/03/11 10:36:47;;;;;;;6.45;2.80;;;10.70;99.90;;;;;;6337566;22;20314;-75
2024/03/11 10:41:49;;;;;;;5.00;2.38;;;10.70;99.90;;;;;;6339485;22;20006;-75
2024/03/11 10:44:18;;;;;;;7.53;3.00;;;10.80;99.90;;;;;;6309598;22;20010;-74
2024/03/11 10:46:44;;;;;;;5.10;2.20;;;10.80;99.90;;;;;;6337379;22;20003;-74
2024/03/11 10:49:14;;;;;;;6.80;2.28;;;10.80;99.90;;;;;;6337650;22;20009;-75
2024/03/11 10:51:47;;;;;;;5.82;1.73;;;10.80;99.90;;;;;;6309964;22;20006;-75
2024/03/11 10:54:22;;;;;;;9.20;2.03;;;10.80;99.90;;;;;;6337564;22;20014;-75
2024/03/11 10:57:01;;;;;;;5.20;1.98;;;10.90;99.90;;;;;;6339113;22;19995;-76
2024/03/11 10:59:34;;;;;;;8.82;2.65;;;10.90;99.90;;;;;;6311234;22;20080;-75
2024/03/11 11:02:05;;;;;;;4.88;2.10;;;10.90;99.90;;;;;;6339498;22;19999;-74
2024/03/11 11:05:39;;;;;;;3.33;2.03;;;10.90;99.90;;;;;;6339719;22;20022;-74
2024/03/11 11:18:39;;;;;;;7.32;2.30;;;11.00;99.90;;;;;;6274448;22;20086;-73
2024/03/11 11:21:10;;;;;;;9.48;2.45;;;11.00;99.90;;;;;;6277140;22;20306;-75
2024/03/11 11:23:36;;;;;;;5.60;2.45;;;11.00;99.90;;;;;;6276725;22;20061;-75
2024/03/11 11:26:03;;;;;;;7.25;2.38;;;11.00;99.90;;;;;;6276657;22;20058;-75
2024/03/11 11:28:40;;;;;;;6.97;2.38;;;11.10;99.90;;;;;;6278283;22;20027;-76
2024/03/11 11:31:34;;;;;;;4.35;2.50;;;11.10;99.90;;;;;;6276624;22;20007;-76
2024/03/11 11:38:09;;;;;;;7.82;3.53;;;11.10;99.90;;;;;;6227524;22;20140;-75
2024/03/11 11:41:19;;;;;;;9.10;2.63;;;11.10;99.90;;;;;;6276159;22;20061;-75
2024/03/11 11:44:40;;;;;;;9.70;2.83;;;11.10;99.90;;;;;;6213542;23;20359;-75
2024/03/11 11:47:15;;;;;;;9.18;2.95;;;11.10;99.90;;;;;;6153266;23;20332;-73
2024/03/11 11:50:38;;;;;;;10.68;3.17;;;11.10;99.90;;;;;;6275614;22;20022;-74
2024/03/11 11:53:10;;;;;;;8.65;3.30;;;11.10;99.90;;;;;;6275950;22;20079;-74
2024/03/11 11:55:58;;;;;;;5.53;2.80;;;11.20;99.90;;;;;;6276991;22;20007;-73
2024/03/11 11:58:25;;;;;;;5.45;2.83;;;11.10;99.90;;;;;;6276999;22;20326;-72
2024/03/11 12:01:03;;;;;;;11.23;3.67;;;11.20;99.90;;;;;;6275759;22;20104;-73
2024/03/11 12:03:36;;;;;;;7.47;3.80;;;11.20;99.90;;;;;;6277161;22;20000;-73
2024/03/11 12:06:17;;;;;;;5.57;3.80;;;11.20;99.90;;;;;;6275999;22;20426;-73
2024/03/11 12:08:50;;;;;;;11.50;3.60;;;11.20;99.90;;;;;;6277822;22;20325;-73
2024/03/11 12:11:19;;;;;;;8.88;3.60;;;11.20;99.90;;;;;;6274051;22;20333;-73
2024/03/11 12:13:48;;;;;;;8.25;3.90;;;11.20;99.90;;;;;;6275249;22;20333;-72
2024/03/11 12:16:27;;;;;;;11.77;4.03;;;11.20;99.90;;;;;;6274686;22;20086;-73
2024/03/11 12:19:00;;;;;;;11.65;3.80;;;11.30;99.90;;;;;;6274928;22;20008;-72
2024/03/11 12:21:28;;;;;;;11.18;3.92;;;11.30;99.90;;;;;;6274513;22;20008;-73
2024/03/11 12:23:55;;;;;;;10.48;4.60;;;11.30;99.90;;;;;;6276952;22;20003;-73
2024/03/11 12:26:26;;;;;;;10.23;4.32;;;11.30;99.90;;;;;;6276645;22;20512;-73
2024/03/11 12:29:07;;;;;;;11.70;4.15;;;11.30;99.90;;;;;;6276227;22;20082;-73
2024/03/11 12:31:37;;;;;;;8.30;4.00;;;11.30;99.90;;;;;;6276741;22;20484;-72
2024/03/11 12:34:10;;;;;;;6.88;3.63;;;11.30;99.90;;;;;;6275998;22;20506;-73
2024/03/11 12:36:46;;;;;;;7.82;3.85;;;11.30;99.90;;;;;;6276818;22;20018;-73
2024/03/11 12:39:20;;;;;;;9.65;4.00;;;11.40;99.90;;;;;;6276843;22;20004;-72
2024/03/11 12:41:47;;;;;;;6.22;3.80;;;11.30;99.90;;;;;;6276503;22;20003;-72
2024/03/11 12:44:20;;;;;;;8.60;3.55;;;11.40;99.90;;;;;;6276455;22;19999;-72
2024/03/11 12:46:50;;;;;;;7.22;3.53;;;11.40;99.90;;;;;;6277221;22;20003;-73
2024/03/11 12:49:19;;;;;;;9.73;3.63;;;11.40;99.90;;;;;;6276946;22;20000;-73
2024/03/11 12:51:47;;;;;;;7.03;3.90;;;11.40;99.90;;;;;;6276587;22;20426;-72
2024/03/11 12:54:24;;;;;;;11.88;3.72;;;11.40;99.90;;;;;;6275814;22;20449;-73
2024/03/11 12:57:07;;;;;;;12.27;4.05;;;11.30;99.90;;;;;;6276336;22;19999;-73
2024/03/11 12:59:34;;;;;;;10.95;3.70;;;11.40;99.90;;;;;;6275058;22;20035;-73
2024/03/11 13:02:18;;;;;;;6.07;2.35;;;11.40;99.90;;;;;;6276535;22;20030;-73
2024/03/11 13:04:53;;;;;;;5.78;2.40;;;11.30;99.90;;;;;;6277070;22;20003;-73
2024/03/11 13:07:20;;;;;;;7.35;1.67;;;11.30;99.90;;;;;;6276842;22;20029;-74
2024/03/11 13:09:46;;;;;;;7.28;1.40;;;11.30;99.90;;;;;;6277440;22;20030;-74
2024/03/11 13:12:18;;;;;;;4.95;1.70;;;11.40;99.90;;;;;;6277532;22;20045;-74
2024/03/11 13:15:41;;;;;;;6.25;2.30;;;11.30;99.90;;;;;;6277168;22;20058;-74
2024/03/11 13:18:32;;;;;;;8.45;2.45;;;11.40;99.90;;;;;;6273587;22;20030;-73
2024/03/11 13:21:06;;;;;;;8.10;2.92;;;11.40;99.90;;;;;;6276799;22;20046;-74
2024/03/11 13:24:03;;;;;;;7.95;2.95;;;11.30;99.90;;;;;;6276392;22;20003;-74
2024/03/11 13:27:13;;;;;;;7.05;2.80;;;11.40;99.90;;;;;;6276550;22;19999;-74
2024/03/11 13:33:37;;;;;;;5.63;3.30;;;11.30;99.90;;;;;;6093307;23;20010;-74
2024/03/11 13:39:52;;;;;;;9.07;3.00;;;11.40;99.90;;;;;;6123432;23;20017;-74
2024/03/11 13:41:58;;;;;;;6.93;2.53;;;11.40;99.90;;;;;;6178157;23;20003;-74
2024/03/11 13:44:24;;;;;;;8.02;2.65;;;11.40;99.90;;;;;;6236887;22;20346;-74
2024/03/11 13:46:49;;;;;;;7.22;2.90;;;11.40;99.90;;;;;;6275644;22;19996;-74
2024/03/11 13:49:18;;;;;;;8.98;2.42;;;11.40;99.90;;;;;;6275842;22;20058;-73
2024/03/11 13:51:44;;;;;;;9.10;2.55;;;11.40;99.90;;;;;;6276077;22;19999;-73
2024/03/11 13:54:10;;;;;;;5.30;2.33;;;11.40;99.90;;;;;;6276068;22;20460;-73
2024/03/11 13:56:36;;;;;;;10.05;2.10;;;11.40;99.90;;;;;;6276112;22;20003;-73
2024/03/11 13:59:05;;;;;;;6.35;2.00;;;11.40;99.90;;;;;;6274950;22;20000;-74
2024/03/11 14:01:31;;;;;;;5.68;2.00;;;11.40;99.90;;;;;;6276273;22;20418;-74
2024/03/11 14:03:56;;;;;;;5.93;2.13;;;11.40;99.90;;;;;;6274826;22;20026;-75
2024/03/11 14:06:22;;;;;;;8.13;2.80;;;11.40;99.90;;;;;;6275571;22;20004;-75
2024/03/11 14:08:48;;;;;;;7.90;2.78;;;11.40;99.90;;;;;;6276252;22;20053;-75
2024/03/11 14:11:14;;;;;;;9.07;2.70;;;11.40;99.90;;;;;;6276628;22;20007;-73
2024/03/11 14:13:41;;;;;;;10.45;2.58;;;11.40;99.90;;;;;;6275979;22;20011;-73
2024/03/11 14:16:11;;;;;;;7.05;2.30;;;11.40;99.90;;;;;;6276232;22;20016;-73
2024/03/11 14:18:38;;;;;;;6.63;1.92;;;11.40;99.90;;;;;;6244678;23;20498;-75
2024/03/11 14:21:10;;;;;;;10.00;2.20;;;11.50;99.90;;;;;;6245350;23;20000;-73
2024/03/11 14:23:38;;;;;;;5.22;1.98;;;11.50;99.90;;;;;;6245141;23;19996;-73
2024/03/11 14:26:11;;;;;;;11.38;2.10;;;11.50;99.90;;;;;;6245354;23;20008;-74
2024/03/11 14:28:46;;;;;;;6.03;2.30;;;11.40;99.90;;;;;;6245060;23;20430;-73
2024/03/11 14:31:14;;;;;;;6.15;2.20;;;11.40;99.90;;;;;;6245585;23;20031;-73
2024/03/11 14:33:45;;;;;;;5.03;1.95;;;11.40;99.90;;;;;;6244973;23;20000;-73
2024/03/11 14:36:11;;;;;;;5.55;1.90;;;11.40;99.90;;;;;;6246126;23;20012;-73
2024/03/11 14:38:38;;;;;;;8.27;2.30;;;11.40;99.90;;;;;;6247470;23;20023;-75
2024/03/11 14:41:11;;;;;;;7.85;2.42;;;11.40;99.90;;;;;;6244180;23;20453;-74
2024/03/11 14:43:44;;;;;;;6.10;3.28;;;11.40;99.90;;;;;;6244620;23;20001;-74
2024/03/11 14:46:10;;;;;;;8.13;3.05;;;11.40;99.90;;;;;;6245103;23;20003;-75
2024/03/11 14:48:38;;;;;;;11.65;3.47;;;11.40;99.90;;;;;;6248150;23;20372;-73
2024/03/11 14:51:05;;;;;;;7.68;2.90;;;11.40;99.90;;;;;;6247076;23;20304;-72
2024/03/11 14:53:58;;;;;;;6.28;2.70;;;11.40;99.90;;;;;;6217838;23;20008;-72
2024/03/11 14:56:32;;;;;;;12.48;3.70;;;11.40;99.90;;;;;;6244319;23;20346;-72
2024/03/11 14:59:36;;;;;;;9.40;3.65;;;11.40;99.90;;;;;;6247221;23;20046;-72
2024/03/11 15:02:45;;;;;;;13.40;3.28;;;11.40;99.90;;;;;;6246246;23;20000;-71
2024/03/11 15:12:11;;;;;;;12.93;2.83;;;11.40;99.90;;;;;;6125549;23;20017;-72